sensor_id;sensor_type;location;lat;lon;timestamp;pressure;altitude;pressure_sealevel;temperature;humidity
16544;BME280;8384;47.996;7.786;2022-07-24T00:01:46;99143.66;;;21.65;63.79
16544;BME280;8384;47.996;7.786;2022-07-24T00:04:12;99151.13;;;21.56;64.31
16544;BME280;8384;47.996;7.786;2022-07-24T00:06:37;99140.81;;;21.48;64.31
16544;BME280;8384;47.996;7.786;2022-07-24T00:09:04;99156.25;;;21.63;64.13
16544;BME280;8384;47.996;7.786;2022-07-24T00:11:30;99146.56;;;21.51;63.95
16544;BME280;8384;47.996;7.786;2022-07-24T00:13:55;99157.84;;;21.46;64.93
16544;BME280;8384;47.996;7.786;2022-07-24T00:16:21;99151.78;;;21.44;65.23
16544;BME280;8384;47.996;7.786;2022-07-24T00:18:46;99150.63;;;21.36;65.35
16544;BME280;8384;47.996;7.786;2022-07-24T00:21:11;99152.13;;;21.42;65.19
16544;BME280;8384;47.996;7.786;2022-07-24T00:23:36;99145.41;;;21.52;64.59
16544;BME280;8384;47.996;7.786;2022-07-24T00:26:02;99151.94;;;21.48;64.80
16544;BME280;8384;47.996;7.786;2022-07-24T00:28:28;99129.81;;;21.34;64.95
16544;BME280;8384;47.996;7.786;2022-07-24T00:30:53;99152.91;;;21.43;64.92
16544;BME280;8384;47.996;7.786;2022-07-24T00:33:18;99144.06;;;21.32;64.97
16544;BME280;8384;47.996;7.786;2022-07-24T00:35:44;99135.38;;;21.34;64.89
16544;BME280;8384;47.996;7.786;2022-07-24T00:38:09;99146.69;;;21.37;64.99
16544;BME280;8384;47.996;7.786;2022-07-24T00:40:35;99141.63;;;21.31;65.01
16544;BME280;8384;47.996;7.786;2022-07-24T00:43:02;99152.41;;;21.32;64.93
16544;BME280;8384;47.996;7.786;2022-07-24T00:45:27;99147.00;;;21.27;65.24
16544;BME280;8384;47.996;7.786;2022-07-24T00:47:52;99142.56;;;21.17;64.75
16544;BME280;8384;47.996;7.786;2022-07-24T00:50:18;99154.66;;;21.21;65.19
16544;BME280;8384;47.996;7.786;2022-07-24T00:52:46;99149.91;;;21.13;65.56
16544;BME280;8384;47.996;7.786;2022-07-24T00:55:12;99148.91;;;21.09;65.81
16544;BME280;8384;47.996;7.786;2022-07-24T00:57:37;99149.88;;;21.04;66.26
16544;BME280;8384;47.996;7.786;2022-07-24T01:00:05;99152.16;;;21.02;66.40
16544;BME280;8384;47.996;7.786;2022-07-24T01:02:32;99148.88;;;21.00;66.43
16544;BME280;8384;47.996;7.786;2022-07-24T01:04:57;99141.69;;;20.99;66.15
16544;BME280;8384;47.996;7.786;2022-07-24T01:07:23;99140.22;;;21.02;66.07
16544;BME280;8384;47.996;7.786;2022-07-24T01:09:49;99122.38;;;20.94;65.88
16544;BME280;8384;47.996;7.786;2022-07-24T01:12:14;99127.75;;;20.90;66.29
16544;BME280;8384;47.996;7.786;2022-07-24T01:14:40;99119.00;;;20.74;66.76
16544;BME280;8384;47.996;7.786;2022-07-24T01:17:05;99116.34;;;20.69;67.19
16544;BME280;8384;47.996;7.786;2022-07-24T01:19:30;99141.75;;;20.76;67.46
16544;BME280;8384;47.996;7.786;2022-07-24T01:21:56;99123.84;;;20.60;67.38
16544;BME280;8384;47.996;7.786;2022-07-24T01:24:22;99134.50;;;20.66;67.76
16544;BME280;8384;47.996;7.786;2022-07-24T01:26:48;99140.59;;;20.77;67.62
16544;BME280;8384;47.996;7.786;2022-07-24T01:29:14;99136.88;;;20.82;67.13
16544;BME280;8384;47.996;7.786;2022-07-24T01:31:39;99111.63;;;20.70;66.82
16544;BME280;8384;47.996;7.786;2022-07-24T01:34:05;99135.72;;;20.83;66.99
16544;BME280;8384;47.996;7.786;2022-07-24T01:36:31;99136.34;;;20.80;66.98
16544;BME280;8384;47.996;7.786;2022-07-24T01:38:56;99130.50;;;20.81;66.91
16544;BME280;8384;47.996;7.786;2022-07-24T01:41:21;99136.22;;;20.85;66.62
16544;BME280;8384;47.996;7.786;2022-07-24T01:43:47;99131.63;;;20.80;66.80
16544;BME280;8384;47.996;7.786;2022-07-24T01:46:12;99120.25;;;20.68;67.09
16544;BME280;8384;47.996;7.786;2022-07-24T01:48:40;99130.56;;;20.67;67.09
16544;BME280;8384;47.996;7.786;2022-07-24T01:51:05;99115.50;;;20.60;67.27
16544;BME280;8384;47.996;7.786;2022-07-24T01:53:30;99115.00;;;20.58;67.25
16544;BME280;8384;47.996;7.786;2022-07-24T01:55:56;99126.91;;;20.58;67.67
16544;BME280;8384;47.996;7.786;2022-07-24T01:58:22;99112.63;;;20.42;67.95
16544;BME280;8384;47.996;7.786;2022-07-24T02:00:47;99118.88;;;20.48;68.08
16544;BME280;8384;47.996;7.786;2022-07-24T02:03:12;99101.69;;;20.37;67.75
16544;BME280;8384;47.996;7.786;2022-07-24T02:05:39;99122.44;;;20.40;68.40
16544;BME280;8384;47.996;7.786;2022-07-24T02:08:05;99114.72;;;20.36;68.51
16544;BME280;8384;47.996;7.786;2022-07-24T02:10:30;99115.09;;;20.44;68.35
16544;BME280;8384;47.996;7.786;2022-07-24T02:12:56;99103.94;;;20.35;68.31
16544;BME280;8384;47.996;7.786;2022-07-24T02:15:22;99111.94;;;20.36;68.07
16544;BME280;8384;47.996;7.786;2022-07-24T02:17:53;99107.16;;;20.28;68.35
16544;BME280;8384;47.996;7.786;2022-07-24T02:20:19;99115.94;;;20.21;68.75
16544;BME280;8384;47.996;7.786;2022-07-24T02:22:44;99116.69;;;20.13;69.30
16544;BME280;8384;47.996;7.786;2022-07-24T02:25:10;99117.59;;;20.22;68.89
16544;BME280;8384;47.996;7.786;2022-07-24T02:27:36;99118.41;;;20.23;68.87
16544;BME280;8384;47.996;7.786;2022-07-24T02:30:06;99114.06;;;20.08;69.34
16544;BME280;8384;47.996;7.786;2022-07-24T02:32:32;99111.25;;;19.99;69.28
16544;BME280;8384;47.996;7.786;2022-07-24T02:34:58;99120.88;;;20.02;69.52
16544;BME280;8384;47.996;7.786;2022-07-24T02:37:23;99116.69;;;19.90;69.96
16544;BME280;8384;47.996;7.786;2022-07-24T02:39:48;99123.47;;;19.98;70.35
16544;BME280;8384;47.996;7.786;2022-07-24T02:42:13;99112.31;;;19.75;70.69
16544;BME280;8384;47.996;7.786;2022-07-24T02:44:39;99119.47;;;19.90;70.45
16544;BME280;8384;47.996;7.786;2022-07-24T02:47:04;99135.50;;;19.79;71.95
16544;BME280;8384;47.996;7.786;2022-07-24T02:49:29;99131.47;;;19.63;72.54
16544;BME280;8384;47.996;7.786;2022-07-24T02:51:55;99138.97;;;19.48;73.43
16544;BME280;8384;47.996;7.786;2022-07-24T02:54:20;99121.47;;;19.25;74.26
16544;BME280;8384;47.996;7.786;2022-07-24T02:56:45;99127.31;;;19.38;73.11
16544;BME280;8384;47.996;7.786;2022-07-24T02:59:11;99120.34;;;19.40;72.82
16544;BME280;8384;47.996;7.786;2022-07-24T03:01:37;99130.25;;;19.55;72.73
16544;BME280;8384;47.996;7.786;2022-07-24T03:04:02;99139.91;;;19.58;72.55
16544;BME280;8384;47.996;7.786;2022-07-24T03:06:27;99125.38;;;19.38;72.85
16544;BME280;8384;47.996;7.786;2022-07-24T03:08:53;99137.66;;;19.46;72.82
16544;BME280;8384;47.996;7.786;2022-07-24T03:11:18;99106.28;;;19.23;73.16
16544;BME280;8384;47.996;7.786;2022-07-24T03:13:43;99139.81;;;19.49;73.18
16544;BME280;8384;47.996;7.786;2022-07-24T03:16:08;99129.84;;;19.48;72.96
16544;BME280;8384;47.996;7.786;2022-07-24T03:18:35;99130.38;;;19.50;72.96
16544;BME280;8384;47.996;7.786;2022-07-24T03:21:00;99119.19;;;19.41;72.95
16544;BME280;8384;47.996;7.786;2022-07-24T03:23:25;99125.16;;;19.34;73.41
16544;BME280;8384;47.996;7.786;2022-07-24T03:25:50;99111.19;;;19.26;72.84
16544;BME280;8384;47.996;7.786;2022-07-24T03:28:17;99138.19;;;19.34;73.43
16544;BME280;8384;47.996;7.786;2022-07-24T03:30:42;99136.53;;;19.47;72.70
16544;BME280;8384;47.996;7.786;2022-07-24T03:33:08;99133.06;;;19.41;72.59
16544;BME280;8384;47.996;7.786;2022-07-24T03:35:33;99123.91;;;19.41;72.37
16544;BME280;8384;47.996;7.786;2022-07-24T03:37:58;99126.78;;;19.36;73.07
16544;BME280;8384;47.996;7.786;2022-07-24T03:40:23;99136.84;;;19.45;72.47
16544;BME280;8384;47.996;7.786;2022-07-24T03:42:49;99137.78;;;19.41;72.68
16544;BME280;8384;47.996;7.786;2022-07-24T03:45:14;99133.06;;;19.41;72.86
16544;BME280;8384;47.996;7.786;2022-07-24T03:47:40;99131.94;;;19.42;72.73
16544;BME280;8384;47.996;7.786;2022-07-24T03:50:05;99134.41;;;19.30;73.42
16544;BME280;8384;47.996;7.786;2022-07-24T03:52:32;99129.16;;;19.42;72.95
16544;BME280;8384;47.996;7.786;2022-07-24T03:54:57;99117.25;;;19.28;72.30
16544;BME280;8384;47.996;7.786;2022-07-24T03:57:22;99148.94;;;19.49;72.36
16544;BME280;8384;47.996;7.786;2022-07-24T03:59:48;99131.53;;;19.35;72.40
16544;BME280;8384;47.996;7.786;2022-07-24T04:02:13;99144.56;;;19.34;72.69
16544;BME280;8384;47.996;7.786;2022-07-24T04:04:39;99137.28;;;19.25;73.30
16544;BME280;8384;47.996;7.786;2022-07-24T04:07:04;99135.97;;;19.08;73.76
16544;BME280;8384;47.996;7.786;2022-07-24T04:09:29;99144.28;;;19.08;73.64
16544;BME280;8384;47.996;7.786;2022-07-24T04:11:55;99148.50;;;19.06;74.16
16544;BME280;8384;47.996;7.786;2022-07-24T04:14:20;99153.81;;;19.30;74.78
16544;BME280;8384;47.996;7.786;2022-07-24T04:16:45;99135.97;;;19.22;75.30
16544;BME280;8384;47.996;7.786;2022-07-24T04:19:12;99162.97;;;19.02;76.21
16544;BME280;8384;47.996;7.786;2022-07-24T04:21:37;99148.66;;;18.81;76.65
16544;BME280;8384;47.996;7.786;2022-07-24T04:24:03;99166.59;;;18.84;76.88
16544;BME280;8384;47.996;7.786;2022-07-24T04:26:28;99163.22;;;18.87;77.03
16544;BME280;8384;47.996;7.786;2022-07-24T04:28:53;99162.41;;;18.86;77.00
16544;BME280;8384;47.996;7.786;2022-07-24T04:31:19;99158.09;;;18.80;76.61
16544;BME280;8384;47.996;7.786;2022-07-24T04:33:44;99158.41;;;18.93;76.73
16544;BME280;8384;47.996;7.786;2022-07-24T04:36:09;99150.84;;;18.98;75.78
16544;BME280;8384;47.996;7.786;2022-07-24T04:38:35;99164.47;;;19.09;75.67
16544;BME280;8384;47.996;7.786;2022-07-24T04:41:00;99163.25;;;19.15;74.95
16544;BME280;8384;47.996;7.786;2022-07-24T04:43:26;99165.22;;;19.14;74.79
16544;BME280;8384;47.996;7.786;2022-07-24T04:45:52;99168.09;;;19.09;75.00
16544;BME280;8384;47.996;7.786;2022-07-24T04:48:17;99160.81;;;19.13;74.59
16544;BME280;8384;47.996;7.786;2022-07-24T04:50:42;99169.50;;;19.34;73.96
16544;BME280;8384;47.996;7.786;2022-07-24T04:53:08;99176.47;;;19.46;73.23
16544;BME280;8384;47.996;7.786;2022-07-24T04:55:33;99160.31;;;19.62;72.50
16544;BME280;8384;47.996;7.786;2022-07-24T04:57:58;99172.50;;;19.75;71.31
16544;BME280;8384;47.996;7.786;2022-07-24T05:00:24;99178.31;;;19.87;70.90
16544;BME280;8384;47.996;7.786;2022-07-24T05:02:49;99167.66;;;19.81;70.93
16544;BME280;8384;47.996;7.786;2022-07-24T05:05:14;99170.94;;;19.83;70.59
16544;BME280;8384;47.996;7.786;2022-07-24T05:07:40;99168.78;;;19.93;70.33
16544;BME280;8384;47.996;7.786;2022-07-24T05:10:05;99178.13;;;19.98;70.45
16544;BME280;8384;47.996;7.786;2022-07-24T05:12:31;99179.78;;;19.99;70.18
16544;BME280;8384;47.996;7.786;2022-07-24T05:14:56;99186.16;;;20.22;69.33
16544;BME280;8384;47.996;7.786;2022-07-24T05:17:22;99166.84;;;20.17;68.76
16544;BME280;8384;47.996;7.786;2022-07-24T05:19:47;99160.06;;;20.23;68.72
16544;BME280;8384;47.996;7.786;2022-07-24T05:22:12;99186.03;;;20.50;68.06
16544;BME280;8384;47.996;7.786;2022-07-24T05:24:38;99184.22;;;20.54;67.93
16544;BME280;8384;47.996;7.786;2022-07-24T05:27:03;99185.28;;;20.67;67.30
16544;BME280;8384;47.996;7.786;2022-07-24T05:29:28;99177.16;;;20.71;66.48
16544;BME280;8384;47.996;7.786;2022-07-24T05:31:53;99194.84;;;20.75;66.83
16544;BME280;8384;47.996;7.786;2022-07-24T05:34:22;99187.06;;;20.86;66.40
16544;BME280;8384;47.996;7.786;2022-07-24T05:36:48;99189.06;;;20.94;66.00
16544;BME280;8384;47.996;7.786;2022-07-24T05:39:14;99174.72;;;21.01;65.11
16544;BME280;8384;47.996;7.786;2022-07-24T05:41:39;99148.72;;;20.96;64.84
16544;BME280;8384;47.996;7.786;2022-07-24T05:44:05;99195.91;;;21.28;64.73
16544;BME280;8384;47.996;7.786;2022-07-24T05:46:30;99189.34;;;21.33;64.13
16544;BME280;8384;47.996;7.786;2022-07-24T05:48:56;99176.63;;;21.32;63.84
16544;BME280;8384;47.996;7.786;2022-07-24T05:51:21;99186.16;;;21.48;63.43
16544;BME280;8384;47.996;7.786;2022-07-24T05:53:46;99174.22;;;21.56;62.72
16544;BME280;8384;47.996;7.786;2022-07-24T05:56:11;99191.63;;;21.80;62.14
16544;BME280;8384;47.996;7.786;2022-07-24T05:58:37;99172.63;;;21.73;61.96
16544;BME280;8384;47.996;7.786;2022-07-24T06:01:02;99184.25;;;22.01;61.29
16544;BME280;8384;47.996;7.786;2022-07-24T06:03:27;99184.09;;;22.15;60.60
16544;BME280;8384;47.996;7.786;2022-07-24T06:05:53;99144.34;;;21.97;60.45
16544;BME280;8384;47.996;7.786;2022-07-24T06:08:18;99187.84;;;22.28;59.81
16544;BME280;8384;47.996;7.786;2022-07-24T06:10:44;99194.59;;;22.45;59.07
16544;BME280;8384;47.996;7.786;2022-07-24T06:13:10;99189.50;;;22.56;58.55
16544;BME280;8384;47.996;7.786;2022-07-24T06:15:35;99183.91;;;22.56;59.36
16544;BME280;8384;47.996;7.786;2022-07-24T06:18:00;99181.44;;;22.72;59.07
16544;BME280;8384;47.996;7.786;2022-07-24T06:20:26;99158.31;;;22.71;58.65
16544;BME280;8384;47.996;7.786;2022-07-24T06:22:51;99177.94;;;22.84;58.33
16544;BME280;8384;47.996;7.786;2022-07-24T06:25:17;99176.59;;;22.99;57.65
16544;BME280;8384;47.996;7.786;2022-07-24T06:27:45;99176.72;;;23.02;57.52
16544;BME280;8384;47.996;7.786;2022-07-24T06:30:14;99170.94;;;22.69;58.66
16544;BME280;8384;47.996;7.786;2022-07-24T06:32:39;99164.94;;;22.49;59.86
16544;BME280;8384;47.996;7.786;2022-07-24T06:35:05;99173.63;;;22.95;58.27
16544;BME280;8384;47.996;7.786;2022-07-24T06:37:31;99152.78;;;23.01;56.85
16544;BME280;8384;47.996;7.786;2022-07-24T06:39:56;99170.91;;;22.77;58.46
16544;BME280;8384;47.996;7.786;2022-07-24T06:42:21;99167.50;;;23.11;56.65
16544;BME280;8384;47.996;7.786;2022-07-24T06:44:46;99157.94;;;22.82;57.00
16544;BME280;8384;47.996;7.786;2022-07-24T06:47:11;99173.56;;;23.21;56.54
16544;BME280;8384;47.996;7.786;2022-07-24T06:49:37;99143.50;;;23.27;56.34
16544;BME280;8384;47.996;7.786;2022-07-24T06:52:02;99152.00;;;23.31;55.81
16544;BME280;8384;47.996;7.786;2022-07-24T06:54:27;99168.22;;;23.38;56.50
16544;BME280;8384;47.996;7.786;2022-07-24T06:56:53;99159.94;;;23.50;56.08
16544;BME280;8384;47.996;7.786;2022-07-24T06:59:18;99175.47;;;23.81;55.06
16544;BME280;8384;47.996;7.786;2022-07-24T07:01:43;99152.59;;;23.66;53.83
16544;BME280;8384;47.996;7.786;2022-07-24T07:04:09;99165.88;;;23.70;53.74
16544;BME280;8384;47.996;7.786;2022-07-24T07:06:34;99164.84;;;23.74;54.34
16544;BME280;8384;47.996;7.786;2022-07-24T07:09:00;99156.88;;;23.64;53.65
16544;BME280;8384;47.996;7.786;2022-07-24T07:11:25;99164.84;;;23.74;53.79
16544;BME280;8384;47.996;7.786;2022-07-24T07:13:50;99165.63;;;23.84;54.33
16544;BME280;8384;47.996;7.786;2022-07-24T07:16:16;99159.28;;;23.95;53.93
16544;BME280;8384;47.996;7.786;2022-07-24T07:18:41;99166.50;;;23.96;53.46
16544;BME280;8384;47.996;7.786;2022-07-24T07:21:07;99163.72;;;23.96;54.26
16544;BME280;8384;47.996;7.786;2022-07-24T07:23:32;99171.41;;;24.21;53.56
16544;BME280;8384;47.996;7.786;2022-07-24T07:25:57;99150.28;;;24.11;53.44
16544;BME280;8384;47.996;7.786;2022-07-24T07:28:23;99160.19;;;24.08;53.94
16544;BME280;8384;47.996;7.786;2022-07-24T07:30:48;99164.84;;;24.17;53.31
16544;BME280;8384;47.996;7.786;2022-07-24T07:33:13;99147.91;;;24.22;52.43
16544;BME280;8384;47.996;7.786;2022-07-24T07:35:39;99159.81;;;24.31;52.88
16544;BME280;8384;47.996;7.786;2022-07-24T07:38:04;99161.34;;;24.41;52.23
16544;BME280;8384;47.996;7.786;2022-07-24T07:40:29;99155.56;;;24.46;51.80
16544;BME280;8384;47.996;7.786;2022-07-24T07:42:55;99157.09;;;24.56;51.60
16544;BME280;8384;47.996;7.786;2022-07-24T07:45:20;99160.72;;;24.69;51.05
16544;BME280;8384;47.996;7.786;2022-07-24T07:47:45;99167.78;;;24.88;49.83
16544;BME280;8384;47.996;7.786;2022-07-24T07:50:11;99160.66;;;24.90;49.37
16544;BME280;8384;47.996;7.786;2022-07-24T07:52:36;99155.44;;;25.01;49.40
16544;BME280;8384;47.996;7.786;2022-07-24T07:55:03;99164.28;;;25.03;50.04
16544;BME280;8384;47.996;7.786;2022-07-24T07:57:28;99167.56;;;25.18;50.17
16544;BME280;8384;47.996;7.786;2022-07-24T07:59:54;99137.03;;;25.00;49.90
16544;BME280;8384;47.996;7.786;2022-07-24T08:02:19;99141.94;;;25.28;49.61
16544;BME280;8384;47.996;7.786;2022-07-24T08:04:44;99137.97;;;25.29;48.79
16544;BME280;8384;47.996;7.786;2022-07-24T08:07:10;99160.59;;;25.49;49.17
16544;BME280;8384;47.996;7.786;2022-07-24T08:09:35;99164.41;;;25.69;48.71
16544;BME280;8384;47.996;7.786;2022-07-24T08:12:03;99156.44;;;25.83;46.65
16544;BME280;8384;47.996;7.786;2022-07-24T08:14:29;99164.44;;;25.97;46.86
16544;BME280;8384;47.996;7.786;2022-07-24T08:16:54;99162.09;;;26.40;47.45
16544;BME280;8384;47.996;7.786;2022-07-24T08:19:19;99151.38;;;26.58;45.16
16544;BME280;8384;47.996;7.786;2022-07-24T08:21:45;99149.78;;;26.45;45.35
16544;BME280;8384;47.996;7.786;2022-07-24T08:24:11;99146.19;;;26.16;45.74
16544;BME280;8384;47.996;7.786;2022-07-24T08:26:36;99154.88;;;26.27;46.30
16544;BME280;8384;47.996;7.786;2022-07-24T08:29:02;99152.72;;;26.48;45.36
16544;BME280;8384;47.996;7.786;2022-07-24T08:31:28;99151.16;;;26.51;44.39
16544;BME280;8384;47.996;7.786;2022-07-24T08:33:54;99157.69;;;26.27;44.77
16544;BME280;8384;47.996;7.786;2022-07-24T08:36:19;99154.47;;;26.41;44.94
16544;BME280;8384;47.996;7.786;2022-07-24T08:38:45;99146.63;;;26.62;44.76
16544;BME280;8384;47.996;7.786;2022-07-24T08:41:14;99127.66;;;26.56;43.39
16544;BME280;8384;47.996;7.786;2022-07-24T08:43:40;99145.75;;;26.58;43.49
16544;BME280;8384;47.996;7.786;2022-07-24T08:46:08;99140.88;;;26.55;42.36
16544;BME280;8384;47.996;7.786;2022-07-24T08:48:35;99137.91;;;26.80;42.36
16544;BME280;8384;47.996;7.786;2022-07-24T08:51:01;99136.09;;;27.04;42.43
16544;BME280;8384;47.996;7.786;2022-07-24T08:53:27;99143.44;;;27.08;41.39
16544;BME280;8384;47.996;7.786;2022-07-24T08:55:52;99131.47;;;27.28;41.72
16544;BME280;8384;47.996;7.786;2022-07-24T08:58:17;99130.34;;;27.48;40.80
16544;BME280;8384;47.996;7.786;2022-07-24T09:00:43;99130.34;;;28.04;41.10
16544;BME280;8384;47.996;7.786;2022-07-24T09:03:08;99133.53;;;28.22;37.77
16544;BME280;8384;47.996;7.786;2022-07-24T09:05:52;99149.19;;;27.83;38.30
16544;BME280;8384;47.996;7.786;2022-07-24T09:08:18;99133.50;;;27.63;38.38
16544;BME280;8384;47.996;7.786;2022-07-24T09:10:57;99140.19;;;27.94;39.82
16544;BME280;8384;47.996;7.786;2022-07-24T09:13:28;99126.16;;;28.13;39.00
16544;BME280;8384;47.996;7.786;2022-07-24T09:15:57;99130.19;;;28.16;37.06
16544;BME280;8384;47.996;7.786;2022-07-24T09:18:34;99146.72;;;28.18;36.80
16544;BME280;8384;47.996;7.786;2022-07-24T09:21:12;99146.22;;;27.76;38.00
16544;BME280;8384;47.996;7.786;2022-07-24T09:23:39;99137.00;;;27.95;38.29
16544;BME280;8384;47.996;7.786;2022-07-24T09:26:04;99127.38;;;28.16;38.22
16544;BME280;8384;47.996;7.786;2022-07-24T09:28:29;99108.00;;;28.31;37.98
16544;BME280;8384;47.996;7.786;2022-07-24T09:31:00;99129.31;;;28.32;37.42
16544;BME280;8384;47.996;7.786;2022-07-24T09:33:35;99113.78;;;28.18;38.69
16544;BME280;8384;47.996;7.786;2022-07-24T09:36:10;99121.31;;;28.14;37.63
16544;BME280;8384;47.996;7.786;2022-07-24T09:38:36;99121.03;;;28.62;37.43
16544;BME280;8384;47.996;7.786;2022-07-24T09:41:02;99116.91;;;28.56;38.08
16544;BME280;8384;47.996;7.786;2022-07-24T09:43:30;99126.41;;;28.71;38.13
16544;BME280;8384;47.996;7.786;2022-07-24T09:45:57;99120.25;;;29.12;36.93
16544;BME280;8384;47.996;7.786;2022-07-24T09:48:40;99116.94;;;28.79;37.35
16544;BME280;8384;47.996;7.786;2022-07-24T09:51:16;99109.72;;;29.59;36.62
16544;BME280;8384;47.996;7.786;2022-07-24T09:53:43;99113.22;;;29.79;34.76
16544;BME280;8384;47.996;7.786;2022-07-24T09:56:14;99116.00;;;29.48;35.20
16544;BME280;8384;47.996;7.786;2022-07-24T10:01:15;99094.28;;;30.10;33.88
16544;BME280;8384;47.996;7.786;2022-07-24T10:03:42;99106.50;;;30.63;33.26
16544;BME280;8384;47.996;7.786;2022-07-24T10:06:15;99087.75;;;30.02;34.24
16544;BME280;8384;47.996;7.786;2022-07-24T10:08:44;99103.41;;;29.69;34.75
16544;BME280;8384;47.996;7.786;2022-07-24T10:11:11;99108.38;;;29.22;35.26
16544;BME280;8384;47.996;7.786;2022-07-24T10:13:37;99104.53;;;29.95;35.51
16544;BME280;8384;47.996;7.786;2022-07-24T10:21:16;99088.97;;;29.71;33.97
16544;BME280;8384;47.996;7.786;2022-07-24T10:29:05;99101.22;;;29.86;33.77
16544;BME280;8384;47.996;7.786;2022-07-24T10:31:34;99090.13;;;30.38;33.19
16544;BME280;8384;47.996;7.786;2022-07-24T10:34:03;99081.06;;;31.04;32.20
16544;BME280;8384;47.996;7.786;2022-07-24T10:36:34;99090.56;;;31.34;31.52
16544;BME280;8384;47.996;7.786;2022-07-24T10:39:10;99092.47;;;30.70;32.24
16544;BME280;8384;47.996;7.786;2022-07-24T10:41:38;99086.00;;;30.66;33.10
16544;BME280;8384;47.996;7.786;2022-07-24T10:44:14;99090.66;;;31.48;31.68
16544;BME280;8384;47.996;7.786;2022-07-24T10:47:04;99080.44;;;31.29;31.91
16544;BME280;8384;47.996;7.786;2022-07-24T10:49:48;99079.25;;;32.26;31.26
16544;BME280;8384;47.996;7.786;2022-07-24T10:52:28;99082.53;;;33.15;29.47
16544;BME280;8384;47.996;7.786;2022-07-24T10:55:32;99073.59;;;32.26;30.01
16544;BME280;8384;47.996;7.786;2022-07-24T11:00:37;99055.03;;;32.39;30.16
16544;BME280;8384;47.996;7.786;2022-07-24T11:03:06;99064.78;;;33.03;28.90
16544;BME280;8384;47.996;7.786;2022-07-24T11:05:37;99060.25;;;33.49;28.36
16544;BME280;8384;47.996;7.786;2022-07-24T11:21:02;99045.75;;;32.82;29.34
16544;BME280;8384;47.996;7.786;2022-07-24T11:23:28;99057.50;;;32.41;29.75
16544;BME280;8384;47.996;7.786;2022-07-24T11:31:44;99052.50;;;31.94;31.08
16544;BME280;8384;47.996;7.786;2022-07-24T11:34:10;99033.59;;;32.24;30.13
16544;BME280;8384;47.996;7.786;2022-07-24T11:36:39;99023.13;;;32.53;29.36
16544;BME280;8384;47.996;7.786;2022-07-24T11:39:05;99024.75;;;32.29;29.95
16544;BME280;8384;47.996;7.786;2022-07-24T11:44:13;99021.88;;;33.19;29.26
16544;BME280;8384;47.996;7.786;2022-07-24T11:46:40;99030.03;;;34.06;28.39
16544;BME280;8384;47.996;7.786;2022-07-24T11:49:08;99032.84;;;32.67;29.66
16544;BME280;8384;47.996;7.786;2022-07-24T11:51:42;99018.06;;;31.70;31.01
16544;BME280;8384;47.996;7.786;2022-07-24T11:54:10;99003.66;;;31.94;30.56
16544;BME280;8384;47.996;7.786;2022-07-24T11:56:36;99016.25;;;32.61;29.99
16544;BME280;8384;47.996;7.786;2022-07-24T11:59:02;98989.97;;;32.94;29.34
16544;BME280;8384;47.996;7.786;2022-07-24T12:01:27;99005.34;;;32.31;30.55
16544;BME280;8384;47.996;7.786;2022-07-24T12:03:54;98996.38;;;33.19;29.04
16544;BME280;8384;47.996;7.786;2022-07-24T12:06:21;99002.44;;;33.18;28.86
16544;BME280;8384;47.996;7.786;2022-07-24T12:08:47;98986.63;;;33.31;29.28
16544;BME280;8384;47.996;7.786;2022-07-24T12:11:20;98988.75;;;32.69;29.55
16544;BME280;8384;47.996;7.786;2022-07-24T12:13:47;98996.44;;;32.65;29.73
16544;BME280;8384;47.996;7.786;2022-07-24T12:16:22;98987.16;;;32.50;30.15
16544;BME280;8384;47.996;7.786;2022-07-24T12:18:47;98982.28;;;32.25;30.68
16544;BME280;8384;47.996;7.786;2022-07-24T12:21:12;98979.03;;;32.01;30.43
16544;BME280;8384;47.996;7.786;2022-07-24T12:23:39;98978.63;;;32.21;30.26
16544;BME280;8384;47.996;7.786;2022-07-24T12:26:05;98951.19;;;32.33;29.24
16544;BME280;8384;47.996;7.786;2022-07-24T12:28:30;98973.00;;;32.50;29.71
16544;BME280;8384;47.996;7.786;2022-07-24T12:30:56;98968.97;;;32.48;29.76
16544;BME280;8384;47.996;7.786;2022-07-24T12:33:23;98965.66;;;33.07;29.25
16544;BME280;8384;47.996;7.786;2022-07-24T12:36:00;98971.81;;;32.40;30.28
16544;BME280;8384;47.996;7.786;2022-07-24T12:38:32;98962.91;;;32.27;30.28
16544;BME280;8384;47.996;7.786;2022-07-24T12:41:11;98959.69;;;32.33;29.81
16544;BME280;8384;47.996;7.786;2022-07-24T12:43:58;98956.41;;;33.88;28.31
16544;BME280;8384;47.996;7.786;2022-07-24T12:51:24;98934.91;;;33.09;29.21
16544;BME280;8384;47.996;7.786;2022-07-24T12:53:53;98940.75;;;33.62;28.31
16544;BME280;8384;47.996;7.786;2022-07-24T12:56:20;98920.63;;;33.45;28.11
16544;BME280;8384;47.996;7.786;2022-07-24T13:01:21;98929.88;;;33.53;28.17
16544;BME280;8384;47.996;7.786;2022-07-24T13:03:56;98920.72;;;33.16;28.43
16544;BME280;8384;47.996;7.786;2022-07-24T13:06:33;98914.28;;;33.05;28.79
16544;BME280;8384;47.996;7.786;2022-07-24T13:08:58;98929.34;;;32.69;28.98
16544;BME280;8384;47.996;7.786;2022-07-24T13:11:23;98915.63;;;32.17;29.78
16544;BME280;8384;47.996;7.786;2022-07-24T13:13:48;98922.06;;;32.68;29.49
16544;BME280;8384;47.996;7.786;2022-07-24T13:16:14;98914.03;;;33.63;28.87
16544;BME280;8384;47.996;7.786;2022-07-24T13:18:39;98909.69;;;34.91;26.42
16544;BME280;8384;47.996;7.786;2022-07-24T13:21:04;98902.78;;;34.08;27.39
16544;BME280;8384;47.996;7.786;2022-07-24T13:23:30;98908.97;;;35.22;26.06
16544;BME280;8384;47.996;7.786;2022-07-24T13:25:55;98906.25;;;36.24;24.69
16544;BME280;8384;47.996;7.786;2022-07-24T13:28:21;98906.88;;;36.59;23.58
16544;BME280;8384;47.996;7.786;2022-07-24T13:30:46;98877.41;;;37.10;23.45
16544;BME280;8384;47.996;7.786;2022-07-24T13:33:11;98901.41;;;35.70;23.70
16544;BME280;8384;47.996;7.786;2022-07-24T13:35:36;98879.00;;;34.40;26.29
16544;BME280;8384;47.996;7.786;2022-07-24T13:38:02;98885.47;;;34.45;26.23
16544;BME280;8384;47.996;7.786;2022-07-24T13:40:27;98876.13;;;35.17;25.90
16544;BME280;8384;47.996;7.786;2022-07-24T13:42:52;98838.63;;;35.29;25.15
16544;BME280;8384;47.996;7.786;2022-07-24T13:45:17;98877.69;;;35.53;24.87
16544;BME280;8384;47.996;7.786;2022-07-24T13:47:43;98867.94;;;34.88;25.12
16544;BME280;8384;47.996;7.786;2022-07-24T13:50:08;98866.09;;;34.74;26.06
16544;BME280;8384;47.996;7.786;2022-07-24T13:52:33;98862.63;;;34.14;25.85